Time;durP1;ratioP1;P1;durP2;ratioP2;P2;SDS_P1;SDS_P2;PMS_P1;PMS_P2;Temp;Humidity;BMP_temperature;BMP_pressure;BME280_temperature;BME280_humidity;BME280_pressure;Samples;Min_cycle;Max_cycle;Signal;HPM_P1;HPM_P2
2022/02/12 00:00:48;;;;;;;20.13;11.79;;;;;;;;;;350607;151;866794;-58
2022/02/12 00:01:49;;;;;;;20.36;13.11;;;;;;;;;;350199;152;865055;-59
2022/02/12 00:02:53;;;;;;;21.65;13.02;;;;;;;;;;348817;153;865005;-59
2022/02/12 00:03:54;;;;;;;22.19;11.91;;;;;;;;;;349930;151;865679;-58
2022/02/12 00:04:56;;;;;;;20.26;11.49;;;;;;;;;;349615;151;864876;-59
2022/02/12 00:05:58;;;;;;;18.84;11.90;;;;;;;;;;351159;153;864711;-58
2022/02/12 00:06:59;;;;;;;18.81;11.63;;;;;;;;;;353060;150;864758;-60
2022/02/12 00:08:01;;;;;;;18.87;12.42;;;;;;;;;;362916;146;864493;-60
2022/02/12 00:09:03;;;;;;;18.64;11.30;;;;;;;;;;365467;146;864811;-61
2022/02/12 00:10:05;;;;;;;18.99;12.11;;;;;;;;;;363077;144;865693;-58
2022/02/12 00:11:06;;;;;;;19.99;12.06;;;;;;;;;;364344;144;858974;-58
2022/02/12 00:12:08;;;;;;;21.14;13.64;;;;;;;;;;362577;146;864697;-58
2022/02/12 00:13:12;;;;;;;20.79;12.90;;;;;;;;;;363444;146;864786;-58
2022/02/12 00:14:14;;;;;;;25.05;13.51;;;;;;;;;;361006;146;865924;-59
2022/02/12 00:15:16;;;;;;;21.21;13.60;;;;;;;;;;365723;145;864940;-58
2022/02/12 00:16:18;;;;;;;21.18;13.48;;;;;;;;;;364092;146;857232;-59
2022/02/12 00:17:19;;;;;;;25.65;13.42;;;;;;;;;;365067;146;857421;-58
2022/02/12 00:18:21;;;;;;;21.76;13.30;;;;;;;;;;361242;146;866624;-58
2022/02/12 00:19:23;;;;;;;22.71;13.19;;;;;;;;;;364740;145;865330;-58
2022/02/12 00:20:25;;;;;;;22.49;13.63;;;;;;;;;;362906;147;864831;-58
2022/02/12 00:21:27;;;;;;;21.76;13.01;;;;;;;;;;364172;146;856573;-58
2022/02/12 00:22:29;;;;;;;27.41;13.30;;;;;;;;;;364306;145;865321;-58
2022/02/12 00:23:31;;;;;;;21.38;13.52;;;;;;;;;;365185;146;857214;-59
2022/02/12 00:24:32;;;;;;;23.31;13.15;;;;;;;;;;362590;146;856555;-58
2022/02/12 00:25:34;;;;;;;21.99;13.61;;;;;;;;;;364296;145;857199;-58
2022/02/12 00:26:36;;;;;;;25.08;13.88;;;;;;;;;;363250;146;864024;-58
2022/02/12 00:27:37;;;;;;;23.20;13.79;;;;;;;;;;364806;147;863887;-58
2022/02/12 00:28:39;;;;;;;23.84;13.64;;;;;;;;;;363075;146;856107;-58
2022/02/12 00:29:40;;;;;;;26.61;14.06;;;;;;;;;;364521;145;859037;-58
2022/02/12 00:30:42;;;;;;;21.93;13.20;;;;;;;;;;364152;147;857239;-59
2022/02/12 00:31:44;;;;;;;23.34;14.79;;;;;;;;;;362894;146;866395;-58
2022/02/12 00:32:45;;;;;;;23.65;13.68;;;;;;;;;;363284;146;864867;-58
2022/02/12 00:33:47;;;;;;;22.31;13.23;;;;;;;;;;365273;145;865817;-59
2022/02/12 00:34:48;;;;;;;20.66;13.50;;;;;;;;;;364922;147;864879;-56
2022/02/12 00:35:50;;;;;;;20.54;13.01;;;;;;;;;;363155;147;866554;-58
2022/02/12 00:36:52;;;;;;;23.22;14.07;;;;;;;;;;364387;145;864719;-58
2022/02/12 00:37:53;;;;;;;23.76;13.84;;;;;;;;;;363777;147;858149;-58
2022/02/12 00:38:55;;;;;;;23.61;13.82;;;;;;;;;;363859;147;864897;-59
2022/02/12 00:39:57;;;;;;;21.76;13.44;;;;;;;;;;363611;145;864769;-58
2022/02/12 00:40:59;;;;;;;25.53;14.92;;;;;;;;;;363909;146;858306;-58
2022/02/12 00:42:01;;;;;;;29.62;15.54;;;;;;;;;;363949;146;857245;-58
2022/02/12 00:43:03;;;;;;;25.24;14.73;;;;;;;;;;361620;145;864976;-58
2022/02/12 00:44:05;;;;;;;25.33;15.48;;;;;;;;;;364718;147;866573;-58
2022/02/12 00:45:07;;;;;;;30.67;15.80;;;;;;;;;;365472;146;857318;-58
2022/02/12 00:46:09;;;;;;;26.22;15.97;;;;;;;;;;364902;147;865940;-58
2022/02/12 00:47:11;;;;;;;29.28;17.69;;;;;;;;;;365435;145;857215;-58
2022/02/12 00:48:12;;;;;;;30.16;17.21;;;;;;;;;;365281;146;864875;-58
2022/02/12 00:49:14;;;;;;;29.41;17.71;;;;;;;;;;364901;146;859059;-57
2022/02/12 00:50:17;;;;;;;29.36;17.39;;;;;;;;;;362254;146;859318;-58
2022/02/12 00:51:19;;;;;;;27.99;16.88;;;;;;;;;;364855;145;857208;-58
2022/02/12 00:52:20;;;;;;;31.47;18.04;;;;;;;;;;363740;146;865844;-60
2022/02/12 00:53:22;;;;;;;33.64;18.63;;;;;;;;;;357356;148;857515;-58
2022/02/12 00:54:23;;;;;;;28.86;17.90;;;;;;;;;;357851;148;865008;-58
2022/02/12 00:55:25;;;;;;;28.79;17.16;;;;;;;;;;364556;145;865041;-58
2022/02/12 00:56:27;;;;;;;33.19;18.71;;;;;;;;;;352004;151;857351;-58
2022/02/12 00:57:31;;;;;;;30.08;17.82;;;;;;;;;;362802;145;859082;-58
2022/02/12 00:58:32;;;;;;;31.98;19.04;;;;;;;;;;363839;146;857863;-58
2022/02/12 00:59:34;;;;;;;31.77;18.23;;;;;;;;;;362009;147;857583;-58
2022/02/12 01:00:35;;;;;;;32.64;19.41;;;;;;;;;;363521;146;865160;-58
2022/02/12 01:01:37;;;;;;;32.36;18.60;;;;;;;;;;363570;146;859557;-58
2022/02/12 01:02:39;;;;;;;31.89;18.70;;;;;;;;;;365066;146;864944;-58
2022/02/12 01:03:40;;;;;;;32.24;19.35;;;;;;;;;;365035;146;864880;-59
2022/02/12 01:04:42;;;;;;;26.52;17.22;;;;;;;;;;361877;145;866702;-58
2022/02/12 01:05:44;;;;;;;30.37;19.22;;;;;;;;;;364359;145;866852;-58
2022/02/12 01:06:45;;;;;;;28.97;17.64;;;;;;;;;;363284;146;856313;-58
2022/02/12 01:07:47;;;;;;;30.65;19.49;;;;;;;;;;362487;147;865527;-58
2022/02/12 01:08:49;;;;;;;28.46;17.59;;;;;;;;;;361992;147;857203;-60
2022/02/12 01:09:50;;;;;;;31.61;19.21;;;;;;;;;;361862;148;857329;-60
2022/02/12 01:10:52;;;;;;;30.94;18.49;;;;;;;;;;361835;147;862424;-60
2022/02/12 01:11:53;;;;;;;30.26;18.42;;;;;;;;;;361677;146;856524;-60
2022/02/12 01:12:55;;;;;;;28.46;18.43;;;;;;;;;;360724;147;867522;-60
2022/02/12 01:13:57;;;;;;;31.12;18.69;;;;;;;;;;362179;146;866793;-60
2022/02/12 01:14:58;;;;;;;33.95;19.29;;;;;;;;;;362354;147;859191;-60
2022/02/12 01:16:00;;;;;;;27.10;17.54;;;;;;;;;;362377;147;865416;-60
2022/02/12 01:17:01;;;;;;;29.54;17.91;;;;;;;;;;362875;147;857372;-59
2022/02/12 01:18:03;;;;;;;28.14;18.19;;;;;;;;;;362852;147;857396;-59
2022/02/12 01:19:05;;;;;;;29.34;17.43;;;;;;;;;;361561;147;866507;-59
2022/02/12 01:20:07;;;;;;;25.40;16.91;;;;;;;;;;361845;147;864962;-59
2022/02/12 01:21:09;;;;;;;25.69;17.69;;;;;;;;;;361521;148;858435;-59
2022/02/12 01:22:10;;;;;;;29.15;17.46;;;;;;;;;;361454;147;857134;-59
2022/02/12 01:23:12;;;;;;;27.84;17.91;;;;;;;;;;362290;147;857910;-59
2022/02/12 01:24:13;;;;;;;29.38;17.07;;;;;;;;;;361532;148;860024;-59
2022/02/12 01:25:15;;;;;;;23.01;14.94;;;;;;;;;;362001;147;863102;-59
2022/02/12 01:26:19;;;;;;;20.33;14.38;;;;;;;;;;363095;147;865501;-59
2022/02/12 01:27:20;;;;;;;23.35;15.14;;;;;;;;;;362306;145;857348;-59
2022/02/12 01:28:22;;;;;;;21.25;14.47;;;;;;;;;;361275;147;865166;-59
2022/02/12 01:29:24;;;;;;;21.22;13.80;;;;;;;;;;360464;146;857363;-59
2022/02/12 01:30:26;;;;;;;21.79;14.09;;;;;;;;;;361020;146;857461;-60
2022/02/12 01:31:28;;;;;;;20.73;14.68;;;;;;;;;;361883;147;864196;-57
2022/02/12 01:32:30;;;;;;;21.64;14.14;;;;;;;;;;362905;147;864811;-58
2022/02/12 01:33:31;;;;;;;22.61;13.87;;;;;;;;;;363424;147;862849;-58
2022/02/12 01:34:33;;;;;;;22.29;13.43;;;;;;;;;;361969;147;859187;-58
2022/02/12 01:35:35;;;;;;;21.03;13.36;;;;;;;;;;363423;148;864843;-58
2022/02/12 01:36:37;;;;;;;19.66;13.26;;;;;;;;;;363226;147;856037;-58
2022/02/12 01:37:38;;;;;;;18.54;13.31;;;;;;;;;;363125;147;863770;-58
2022/02/12 01:38:40;;;;;;;20.79;12.59;;;;;;;;;;362979;147;866734;-58
2022/02/12 01:39:42;;;;;;;20.44;13.46;;;;;;;;;;363024;147;857731;-58
2022/02/12 01:40:45;;;;;;;17.86;12.57;;;;;;;;;;361589;147;865813;-59
2022/02/12 01:41:46;;;;;;;19.01;13.03;;;;;;;;;;361790;145;865717;-59
2022/02/12 01:42:48;;;;;;;20.21;12.69;;;;;;;;;;362826;146;859481;-58
2022/02/12 01:43:50;;;;;;;19.05;12.49;;;;;;;;;;360110;147;865726;-59
2022/02/12 01:44:51;;;;;;;17.37;11.84;;;;;;;;;;362713;147;864704;-60
2022/02/12 01:45:53;;;;;;;17.83;12.13;;;;;;;;;;361770;146;857589;-60
2022/02/12 01:46:54;;;;;;;16.56;11.62;;;;;;;;;;362655;147;857269;-60
2022/02/12 01:47:56;;;;;;;18.76;12.50;;;;;;;;;;360427;147;865279;-60
2022/02/12 01:48:58;;;;;;;19.36;11.79;;;;;;;;;;363330;147;857483;-60
2022/02/12 01:49:59;;;;;;;20.40;12.48;;;;;;;;;;362691;147;859117;-60
2022/02/12 01:51:02;;;;;;;17.61;11.43;;;;;;;;;;362217;147;858111;-60
2022/02/12 01:52:05;;;;;;;16.45;10.69;;;;;;;;;;361830;146;864821;-60
2022/02/12 01:53:07;;;;;;;15.26;10.75;;;;;;;;;;359359;147;865951;-60
2022/02/12 01:54:08;;;;;;;16.22;11.47;;;;;;;;;;361349;146;857331;-60
2022/02/12 01:55:12;;;;;;;16.13;10.90;;;;;;;;;;361410;147;865979;-60
2022/02/12 01:56:14;;;;;;;17.32;10.85;;;;;;;;;;362483;147;858791;-60
2022/02/12 01:57:15;;;;;;;18.04;11.24;;;;;;;;;;355338;149;866704;-59
2022/02/12 01:58:17;;;;;;;14.68;11.07;;;;;;;;;;357855;148;857246;-58
2022/02/12 01:59:20;;;;;;;16.96;11.27;;;;;;;;;;360916;148;857255;-58
2022/02/12 02:00:22;;;;;;;15.56;10.36;;;;;;;;;;361828;148;862728;-59
2022/02/12 02:01:24;;;;;;;13.75;9.76;;;;;;;;;;361396;147;857269;-58
2022/02/12 02:02:26;;;;;;;15.51;9.94;;;;;;;;;;360576;147;857305;-59
2022/02/12 02:03:28;;;;;;;14.93;10.48;;;;;;;;;;356472;150;856495;-59
2022/02/12 02:04:29;;;;;;;15.68;10.19;;;;;;;;;;354696;148;857290;-59
2022/02/12 02:05:31;;;;;;;14.94;9.86;;;;;;;;;;360593;147;858866;-59
2022/02/12 02:06:33;;;;;;;14.01;9.57;;;;;;;;;;361972;148;866770;-58
2022/02/12 02:07:34;;;;;;;14.22;9.59;;;;;;;;;;362963;147;866626;-59
2022/02/12 02:08:36;;;;;;;13.67;9.73;;;;;;;;;;363178;146;864037;-58
2022/02/12 02:09:38;;;;;;;16.12;9.98;;;;;;;;;;364920;146;864002;-59
2022/02/12 02:10:39;;;;;;;14.27;10.16;;;;;;;;;;363855;147;858693;-58
2022/02/12 02:11:41;;;;;;;14.01;9.31;;;;;;;;;;363505;145;864921;-58
2022/02/12 02:12:42;;;;;;;13.26;8.96;;;;;;;;;;363188;145;857139;-58
2022/02/12 02:13:45;;;;;;;15.89;10.00;;;;;;;;;;363612;147;857197;-58
2022/02/12 02:14:46;;;;;;;18.03;10.41;;;;;;;;;;364678;147;866980;-58
2022/02/12 02:15:48;;;;;;;14.59;10.15;;;;;;;;;;356971;148;858962;-58
2022/02/12 02:16:50;;;;;;;15.99;9.87;;;;;;;;;;354735;149;858698;-58
2022/02/12 02:17:52;;;;;;;13.26;9.20;;;;;;;;;;358269;146;858480;-59
2022/02/12 02:18:53;;;;;;;13.21;9.43;;;;;;;;;;365495;145;865578;-59
2022/02/12 02:19:55;;;;;;;13.42;9.66;;;;;;;;;;363459;147;865521;-59
2022/02/12 02:20:57;;;;;;;13.89;8.57;;;;;;;;;;363432;146;865035;-58
2022/02/12 02:21:59;;;;;;;13.65;8.83;;;;;;;;;;361922;145;864951;-59
2022/02/12 02:23:00;;;;;;;14.18;8.37;;;;;;;;;;362856;145;857214;-59
2022/02/12 02:24:02;;;;;;;11.79;8.40;;;;;;;;;;361867;147;857242;-59
2022/02/12 02:25:04;;;;;;;11.67;7.89;;;;;;;;;;363267;147;857238;-59
2022/02/12 02:26:08;;;;;;;12.98;8.54;;;;;;;;;;364312;146;859069;-59
2022/02/12 02:27:11;;;;;;;11.13;7.73;;;;;;;;;;364849;145;857273;-58
2022/02/12 02:28:12;;;;;;;11.65;7.71;;;;;;;;;;365445;146;858891;-59
2022/02/12 02:29:14;;;;;;;11.98;8.11;;;;;;;;;;363956;146;866223;-59
2022/02/12 02:30:17;;;;;;;12.30;7.73;;;;;;;;;;364470;145;865501;-58
2022/02/12 02:31:19;;;;;;;10.62;7.69;;;;;;;;;;364028;147;858279;-59
2022/02/12 02:32:20;;;;;;;10.14;6.60;;;;;;;;;;363340;146;859342;-59
2022/02/12 02:33:22;;;;;;;9.55;6.89;;;;;;;;;;365039;145;865118;-58
2022/02/12 02:34:25;;;;;;;9.92;6.87;;;;;;;;;;364509;146;857299;-58
2022/02/12 02:35:26;;;;;;;8.75;6.08;;;;;;;;;;365141;147;857718;-58
2022/02/12 02:36:28;;;;;;;9.59;6.32;;;;;;;;;;362274;145;856877;-58
2022/02/12 02:37:30;;;;;;;8.23;6.71;;;;;;;;;;363759;145;857380;-58
2022/02/12 02:38:32;;;;;;;9.03;6.20;;;;;;;;;;365265;147;858614;-58
2022/02/12 02:39:33;;;;;;;7.52;5.94;;;;;;;;;;363479;146;857510;-58
2022/02/12 02:40:35;;;;;;;7.03;5.63;;;;;;;;;;364943;146;858879;-58
2022/02/12 02:41:37;;;;;;;8.00;5.95;;;;;;;;;;363280;147;865254;-58
2022/02/12 02:42:39;;;;;;;6.96;4.94;;;;;;;;;;363747;147;856071;-58
2022/02/12 02:43:41;;;;;;;7.78;5.51;;;;;;;;;;362904;145;864883;-60
2022/02/12 02:44:43;;;;;;;8.11;5.64;;;;;;;;;;362452;144;864790;-61
2022/02/12 02:45:44;;;;;;;6.46;5.31;;;;;;;;;;365373;144;865998;-61
2022/02/12 02:46:46;;;;;;;6.30;4.74;;;;;;;;;;363216;146;864838;-58
2022/02/12 02:47:48;;;;;;;6.86;5.33;;;;;;;;;;363824;145;864816;-58
2022/02/12 02:48:49;;;;;;;8.14;5.76;;;;;;;;;;364150;146;864887;-58
2022/02/12 02:49:51;;;;;;;7.41;5.49;;;;;;;;;;365281;146;857352;-60
2022/02/12 02:56:13;;;;;;;4.72;3.76;;;;;;;;;;364438;147;857305;-59
2022/02/12 02:57:15;;;;;;;4.78;3.43;;;;;;;;;;364601;146;857102;-59
2022/02/12 02:58:16;;;;;;;4.48;3.34;;;;;;;;;;363598;145;864894;-59
2022/02/12 02:59:18;;;;;;;4.53;3.58;;;;;;;;;;363335;146;862079;-59
2022/02/12 03:00:20;;;;;;;3.63;3.01;;;;;;;;;;363279;146;856483;-59
2022/02/12 03:01:23;;;;;;;3.16;2.48;;;;;;;;;;362691;146;864862;-57
2022/02/12 03:02:25;;;;;;;3.46;3.06;;;;;;;;;;364822;146;857561;-59
2022/02/12 03:03:27;;;;;;;3.31;3.01;;;;;;;;;;362233;145;856358;-58
2022/02/12 03:04:28;;;;;;;4.27;2.96;;;;;;;;;;364356;145;865778;-58
2022/02/12 03:05:30;;;;;;;2.02;1.45;;;;;;;;;;364395;145;858719;-58
2022/02/12 03:06:32;;;;;;;2.23;2.05;;;;;;;;;;365244;146;864858;-58
2022/02/12 03:07:33;;;;;;;2.64;2.37;;;;;;;;;;361372;147;864609;-58
2022/02/12 03:08:35;;;;;;;2.60;2.26;;;;;;;;;;358275;147;864789;-58
2022/02/12 03:09:36;;;;;;;3.16;2.30;;;;;;;;;;355408;149;864117;-58
2022/02/12 03:10:38;;;;;;;2.34;2.11;;;;;;;;;;356528;149;864251;-57
2022/02/12 03:11:40;;;;;;;2.27;1.96;;;;;;;;;;356651;150;865634;-57
2022/02/12 03:12:41;;;;;;;2.01;1.83;;;;;;;;;;355252;148;864630;-59
2022/02/12 03:13:43;;;;;;;2.44;1.96;;;;;;;;;;357954;149;863780;-60
2022/02/12 03:14:45;;;;;;;2.03;1.74;;;;;;;;;;358253;147;857314;-59
2022/02/12 03:15:46;;;;;;;1.59;1.36;;;;;;;;;;357570;147;856411;-60
2022/02/12 03:16:48;;;;;;;1.27;1.15;;;;;;;;;;358146;147;856840;-59
2022/02/12 03:17:49;;;;;;;1.29;1.19;;;;;;;;;;357579;149;864288;-59
2022/02/12 03:18:51;;;;;;;1.10;1.00;;;;;;;;;;356626;149;858141;-60
2022/02/12 03:19:53;;;;;;;1.39;1.29;;;;;;;;;;357181;148;864737;-58
2022/02/12 03:20:55;;;;;;;1.29;1.19;;;;;;;;;;356427;149;864693;-58
2022/02/12 03:21:56;;;;;;;1.59;1.22;;;;;;;;;;356707;149;856029;-58
2022/02/12 03:22:58;;;;;;;1.23;1.11;;;;;;;;;;355247;148;864781;-59
2022/02/12 03:24:00;;;;;;;1.89;1.11;;;;;;;;;;357335;149;857426;-59
2022/02/12 03:25:01;;;;;;;1.50;0.99;;;;;;;;;;356414;149;859111;-59
2022/02/12 03:26:03;;;;;;;1.15;1.05;;;;;;;;;;356337;148;865824;-58
2022/02/12 03:27:07;;;;;;;1.64;1.27;;;;;;;;;;356971;148;858610;-58
2022/02/12 03:28:08;;;;;;;1.43;1.21;;;;;;;;;;357647;150;866659;-58
2022/02/12 03:29:10;;;;;;;1.35;1.15;;;;;;;;;;357451;149;860802;-58
2022/02/12 03:30:12;;;;;;;1.07;0.86;;;;;;;;;;357059;148;864704;-59
2022/02/12 03:31:14;;;;;;;0.94;0.92;;;;;;;;;;354704;149;857489;-60
2022/02/12 03:32:15;;;;;;;1.07;0.95;;;;;;;;;;358080;149;865360;-60
2022/02/12 03:33:17;;;;;;;1.04;0.92;;;;;;;;;;357963;148;858940;-60
2022/02/12 03:34:19;;;;;;;0.91;0.68;;;;;;;;;;357791;148;864755;-60
2022/02/12 03:35:22;;;;;;;0.78;0.78;;;;;;;;;;354322;148;857282;-60
2022/02/12 03:36:24;;;;;;;1.42;0.84;;;;;;;;;;356276;148;857378;-60
2022/02/12 03:37:27;;;;;;;1.10;0.77;;;;;;;;;;355342;148;866358;-61
2022/02/12 03:38:30;;;;;;;0.92;0.73;;;;;;;;;;356961;149;863733;-60
2022/02/12 03:39:31;;;;;;;0.79;0.77;;;;;;;;;;350468;152;859496;-60
2022/02/12 03:40:33;;;;;;;0.75;0.65;;;;;;;;;;344937;154;858981;-60
2022/02/12 03:41:35;;;;;;;0.86;0.81;;;;;;;;;;351537;150;857645;-60
2022/02/12 03:42:37;;;;;;;1.34;0.72;;;;;;;;;;345341;154;857080;-60
2022/02/12 03:43:39;;;;;;;0.80;0.80;;;;;;;;;;345882;153;865595;-59
2022/02/12 03:44:43;;;;;;;0.66;0.64;;;;;;;;;;342656;154;864845;-58
2022/02/12 03:45:44;;;;;;;1.22;0.80;;;;;;;;;;351268;152;857374;-59
2022/02/12 03:46:45;;;;;;;0.94;0.89;;;;;;;;;;342916;154;858931;-59
2022/02/12 03:47:47;;;;;;;1.44;1.16;;;;;;;;;;344515;154;857287;-57
2022/02/12 03:48:49;;;;;;;1.26;0.68;;;;;;;;;;350374;152;857422;-58
2022/02/12 03:49:51;;;;;;;1.31;1.03;;;;;;;;;;351126;152;857188;-59
2022/02/12 03:50:53;;;;;;;0.76;0.70;;;;;;;;;;346650;154;857195;-59
2022/02/12 03:51:55;;;;;;;1.45;0.66;;;;;;;;;;346542;152;866978;-61
2022/02/12 03:52:56;;;;;;;1.03;0.77;;;;;;;;;;343313;155;857424;-59
2022/02/12 03:53:58;;;;;;;1.27;0.79;;;;;;;;;;346900;152;858364;-56
2022/02/12 03:54:59;;;;;;;0.79;0.72;;;;;;;;;;344694;153;857334;-57
2022/02/12 03:56:01;;;;;;;1.06;0.79;;;;;;;;;;347473;154;857319;-57
2022/02/12 03:57:03;;;;;;;0.75;0.74;;;;;;;;;;346446;152;863652;-59
2022/02/12 03:58:05;;;;;;;0.81;0.81;;;;;;;;;;348230;152;859643;-57
2022/02/12 03:59:06;;;;;;;0.75;0.73;;;;;;;;;;350782;151;857297;-57
2022/02/12 04:00:11;;;;;;;0.74;0.74;;;;;;;;;;349483;152;858899;-56
2022/02/12 04:01:13;;;;;;;0.70;0.70;;;;;;;;;;349972;152;864934;-57
2022/02/12 04:02:15;;;;;;;1.30;0.80;;;;;;;;;;350263;150;858847;-58
2022/02/12 04:03:17;;;;;;;1.00;0.90;;;;;;;;;;349160;152;864926;-57
2022/02/12 04:04:18;;;;;;;1.21;0.89;;;;;;;;;;343461;155;864853;-57
2022/02/12 04:05:21;;;;;;;1.06;0.80;;;;;;;;;;341754;154;865083;-57
2022/02/12 04:06:23;;;;;;;0.93;0.76;;;;;;;;;;350032;150;864967;-59
2022/02/12 04:07:24;;;;;;;1.00;0.65;;;;;;;;;;350595;152;857483;-59
2022/02/12 04:08:26;;;;;;;1.54;0.99;;;;;;;;;;350709;152;866698;-58
2022/02/12 04:09:28;;;;;;;0.74;0.70;;;;;;;;;;351459;149;856371;-58
2022/02/12 04:10:29;;;;;;;0.70;0.69;;;;;;;;;;352334;149;856825;-59
2022/02/12 04:11:31;;;;;;;0.94;0.90;;;;;;;;;;350661;149;856043;-58
2022/02/12 04:12:33;;;;;;;0.99;0.91;;;;;;;;;;349605;149;864741;-58
2022/02/12 04:13:36;;;;;;;1.63;1.24;;;;;;;;;;349082;150;858561;-58
2022/02/12 04:14:38;;;;;;;2.41;1.26;;;;;;;;;;350078;151;856299;-57
2022/02/12 04:15:39;;;;;;;1.76;1.39;;;;;;;;;;352245;151;856493;-58
2022/02/12 04:16:41;;;;;;;2.31;1.44;;;;;;;;;;351670;149;863803;-58
2022/02/12 04:17:43;;;;;;;1.84;1.57;;;;;;;;;;350422;149;863769;-57
2022/02/12 04:18:45;;;;;;;1.74;1.56;;;;;;;;;;353763;149;866080;-58
2022/02/12 04:19:46;;;;;;;2.87;2.15;;;;;;;;;;352321;149;864229;-58
2022/02/12 04:20:48;;;;;;;2.16;1.76;;;;;;;;;;349302;149;859133;-59
2022/02/12 04:21:50;;;;;;;2.57;1.96;;;;;;;;;;350392;149;865030;-57
2022/02/12 04:22:52;;;;;;;3.49;2.33;;;;;;;;;;352147;149;865041;-57
2022/02/12 04:23:53;;;;;;;3.16;2.09;;;;;;;;;;352715;149;856195;-58
2022/02/12 04:24:55;;;;;;;2.51;1.97;;;;;;;;;;352611;151;865066;-58
2022/02/12 04:25:57;;;;;;;3.02;2.21;;;;;;;;;;349419;150;858748;-59
2022/02/12 04:26:58;;;;;;;2.11;1.52;;;;;;;;;;350252;150;864714;-58
2022/02/12 04:28:04;;;;;;;2.81;2.21;;;;;;;;;;352667;149;864510;-58
2022/02/12 04:29:05;;;;;;;2.14;1.84;;;;;;;;;;352541;149;857447;-58
2022/02/12 04:30:07;;;;;;;2.09;1.55;;;;;;;;;;351528;149;859798;-58
2022/02/12 04:31:09;;;;;;;3.15;1.85;;;;;;;;;;352425;149;865084;-59
2022/02/12 04:32:11;;;;;;;1.49;1.32;;;;;;;;;;352277;151;859105;-59
2022/02/12 04:33:12;;;;;;;1.67;1.57;;;;;;;;;;351509;150;864872;-59
2022/02/12 04:34:14;;;;;;;2.24;1.70;;;;;;;;;;352687;149;865771;-59
2022/02/12 04:35:16;;;;;;;1.73;1.63;;;;;;;;;;351961;149;865803;-58
2022/02/12 04:36:19;;;;;;;2.25;1.69;;;;;;;;;;349959;150;858794;-58
2022/02/12 04:37:21;;;;;;;2.86;1.76;;;;;;;;;;351356;150;857873;-58
2022/02/12 04:38:23;;;;;;;2.30;1.99;;;;;;;;;;353329;149;865877;-58
2022/02/12 04:39:24;;;;;;;2.09;1.61;;;;;;;;;;350777;151;856958;-58
2022/02/12 04:40:28;;;;;;;1.76;1.55;;;;;;;;;;347127;151;862592;-57
2022/02/12 04:41:29;;;;;;;1.40;1.18;;;;;;;;;;346862;152;857382;-57
2022/02/12 04:42:32;;;;;;;1.79;1.38;;;;;;;;;;345444;152;865674;-56
2022/02/12 04:43:36;;;;;;;2.18;1.51;;;;;;;;;;348707;152;856693;-56
2022/02/12 04:44:39;;;;;;;2.72;1.91;;;;;;;;;;349913;149;863699;-56
2022/02/12 04:45:40;;;;;;;2.24;1.57;;;;;;;;;;349404;150;856280;-55
2022/02/12 04:46:42;;;;;;;1.99;1.59;;;;;;;;;;350911;152;856168;-56
2022/02/12 04:47:44;;;;;;;1.87;1.31;;;;;;;;;;344291;152;865359;-57
2022/02/12 04:48:48;;;;;;;2.78;1.81;;;;;;;;;;347045;150;864800;-57
2022/02/12 04:49:49;;;;;;;2.54;1.82;;;;;;;;;;349895;150;858345;-58
2022/02/12 04:50:50;;;;;;;1.90;1.22;;;;;;;;;;354402;151;865350;-57
2022/02/12 04:51:52;;;;;;;1.30;1.24;;;;;;;;;;352598;150;864942;-57
2022/02/12 04:52:54;;;;;;;1.80;1.56;;;;;;;;;;353566;149;857241;-58
2022/02/12 04:53:57;;;;;;;2.01;1.48;;;;;;;;;;350903;149;864336;-56
2022/02/12 04:54:59;;;;;;;1.37;1.26;;;;;;;;;;349740;151;863709;-58
2022/02/12 04:56:00;;;;;;;1.81;1.38;;;;;;;;;;349143;149;857330;-58
2022/02/12 04:57:02;;;;;;;1.61;1.34;;;;;;;;;;351604;152;866692;-58
2022/02/12 04:58:04;;;;;;;2.27;1.49;;;;;;;;;;350200;152;857809;-55
2022/02/12 04:59:05;;;;;;;1.41;1.10;;;;;;;;;;350718;149;864850;-57
2022/02/12 05:00:07;;;;;;;1.61;1.32;;;;;;;;;;351554;149;856511;-56
2022/02/12 05:01:20;;;;;;;1.18;1.07;;;;;;;;;;351728;149;857134;-55
2022/02/12 05:02:15;;;;;;;1.22;1.04;;;;;;;;;;348435;149;858220;-57
2022/02/12 05:03:17;;;;;;;2.82;1.16;;;;;;;;;;354515;149;857755;-57
2022/02/12 05:04:19;;;;;;;2.69;1.49;;;;;;;;;;350684;152;857468;-57
2022/02/12 05:05:21;;;;;;;1.89;1.39;;;;;;;;;;351028;150;857607;-57
2022/02/12 05:06:24;;;;;;;1.75;1.52;;;;;;;;;;351190;150;857711;-58
2022/02/12 05:07:25;;;;;;;2.98;1.36;;;;;;;;;;349038;150;859576;-57
2022/02/12 05:08:27;;;;;;;2.05;1.21;;;;;;;;;;353358;151;866775;-57
2022/02/12 05:09:31;;;;;;;3.70;1.41;;;;;;;;;;352300;149;865677;-57
2022/02/12 05:10:32;;;;;;;1.68;1.32;;;;;;;;;;353949;149;860266;-57
2022/02/12 05:11:34;;;;;;;1.55;1.06;;;;;;;;;;354546;149;859014;-55
2022/02/12 05:12:36;;;;;;;1.49;1.20;;;;;;;;;;356734;146;864022;-56
2022/02/12 05:13:37;;;;;;;2.47;1.08;;;;;;;;;;359051;146;857203;-56
2022/02/12 05:14:39;;;;;;;2.36;0.99;;;;;;;;;;354281;148;864231;-55
2022/02/12 05:15:40;;;;;;;1.36;1.09;;;;;;;;;;354976;149;857027;-56
2022/02/12 05:16:42;;;;;;;1.44;0.97;;;;;;;;;;353632;148;856147;-56
2022/02/12 05:17:44;;;;;;;1.76;1.26;;;;;;;;;;354847;148;864273;-55
2022/02/12 05:18:45;;;;;;;1.26;1.11;;;;;;;;;;351196;148;864938;-55
2022/02/12 05:19:47;;;;;;;1.24;1.00;;;;;;;;;;354418;148;857353;-55
2022/02/12 05:20:49;;;;;;;1.80;1.09;;;;;;;;;;353842;148;859400;-57
2022/02/12 05:21:50;;;;;;;1.44;1.22;;;;;;;;;;355342;148;857706;-57
2022/02/12 05:22:52;;;;;;;1.44;0.80;;;;;;;;;;354674;148;860972;-59
2022/02/12 05:23:54;;;;;;;0.80;0.80;;;;;;;;;;355089;149;866506;-58
2022/02/12 05:24:55;;;;;;;1.14;0.94;;;;;;;;;;353080;148;864826;-56
2022/02/12 05:25:57;;;;;;;1.22;0.84;;;;;;;;;;353637;148;863732;-56
2022/02/12 05:26:59;;;;;;;0.82;0.71;;;;;;;;;;349123;152;857337;-56
2022/02/12 05:28:00;;;;;;;0.80;0.73;;;;;;;;;;348757;151;864904;-55
2022/02/12 05:29:02;;;;;;;0.95;0.90;;;;;;;;;;353810;149;865093;-56
2022/02/12 05:30:04;;;;;;;0.76;0.75;;;;;;;;;;353881;148;863814;-56
2022/02/12 05:31:06;;;;;;;1.06;0.97;;;;;;;;;;355272;148;858943;-56
2022/02/12 05:32:08;;;;;;;0.89;0.84;;;;;;;;;;355228;148;858644;-57
2022/02/12 05:33:10;;;;;;;1.16;0.87;;;;;;;;;;353663;151;864968;-59
2022/02/12 05:34:11;;;;;;;0.80;0.80;;;;;;;;;;351870;151;856074;-58
2022/02/12 05:35:13;;;;;;;0.90;0.90;;;;;;;;;;353879;148;868521;-58
2022/02/12 05:36:15;;;;;;;0.75;0.69;;;;;;;;;;355911;148;858317;-58
2022/02/12 05:37:17;;;;;;;2.29;0.74;;;;;;;;;;354412;149;858961;-57
2022/02/12 05:38:18;;;;;;;1.13;0.74;;;;;;;;;;354935;148;857795;-59
2022/02/12 05:39:20;;;;;;;0.71;0.71;;;;;;;;;;354912;148;863977;-58
2022/02/12 05:40:22;;;;;;;0.75;0.71;;;;;;;;;;357579;148;857852;-58
2022/02/12 05:41:24;;;;;;;0.94;0.85;;;;;;;;;;354723;148;856191;-58
2022/02/12 05:42:26;;;;;;;0.91;0.81;;;;;;;;;;353778;148;859360;-59
2022/02/12 05:43:28;;;;;;;0.91;0.74;;;;;;;;;;355958;148;856867;-59
2022/02/12 05:44:29;;;;;;;1.21;0.71;;;;;;;;;;353851;148;859309;-60
2022/02/12 05:45:31;;;;;;;0.79;0.79;;;;;;;;;;354078;148;858351;-60
2022/02/12 05:46:32;;;;;;;1.08;0.98;;;;;;;;;;355534;148;857312;-61
2022/02/12 05:47:41;;;;;;;1.42;1.00;;;;;;;;;;353818;148;864705;-59
2022/02/12 05:48:45;;;;;;;1.16;0.90;;;;;;;;;;354821;148;864688;-60
2022/02/12 05:49:46;;;;;;;0.79;0.79;;;;;;;;;;354260;148;857246;-58
2022/02/12 05:50:48;;;;;;;1.24;0.94;;;;;;;;;;354931;148;857000;-57
2022/02/12 05:51:49;;;;;;;1.28;0.86;;;;;;;;;;355194;148;857198;-57
2022/02/12 05:52:51;;;;;;;2.36;1.01;;;;;;;;;;353593;148;866610;-57
2022/02/12 05:53:53;;;;;;;0.86;0.86;;;;;;;;;;353718;148;857361;-56
2022/02/12 05:54:54;;;;;;;1.26;0.99;;;;;;;;;;353744;148;858890;-57
2022/02/12 05:55:56;;;;;;;1.21;1.11;;;;;;;;;;347914;151;857565;-58
2022/02/12 05:56:58;;;;;;;1.14;1.00;;;;;;;;;;347885;151;864167;-59
2022/02/12 05:57:59;;;;;;;1.39;1.00;;;;;;;;;;354001;148;864814;-57
2022/02/12 05:59:03;;;;;;;1.13;1.03;;;;;;;;;;354133;148;859489;-59
2022/02/12 06:00:05;;;;;;;1.12;0.96;;;;;;;;;;353336;148;863969;-59
2022/02/12 06:01:07;;;;;;;1.11;1.00;;;;;;;;;;354545;148;867007;-58
2022/02/12 06:02:09;;;;;;;0.94;0.80;;;;;;;;;;354170;148;857848;-58
2022/02/12 06:03:10;;;;;;;1.03;0.97;;;;;;;;;;352916;149;866138;-58
2022/02/12 06:04:12;;;;;;;1.26;0.99;;;;;;;;;;356011;148;859629;-58
2022/02/12 06:05:13;;;;;;;0.89;0.85;;;;;;;;;;351549;151;858708;-58
2022/02/12 06:06:16;;;;;;;1.21;1.11;;;;;;;;;;354467;150;864027;-58
2022/02/12 06:07:18;;;;;;;1.63;0.90;;;;;;;;;;354800;149;858871;-58